Tuesday, October 17, 2017, 2:42 PM EDT
Back to Local

KABE, Lehigh Valley International Airport

Location: Allentown, PA, United States Lat: 40.65
Local Time: 2:42 PM EDT (18:42 GMT) Lon: -75.45
Time Zone: US/Eastern Elev: 393 ft

Show me the last for .
Show Coded

Time T Td Feel RH Dir Speed Gust Alt SLP Vis Weather Sky Remarks
2017-10-17 13:51 58 33 - 38 Variable 3 - 30.30 30.30 10 CLR 6-hr Min Temp (2pm): 39.9°F
6-hr Max Temp (2pm): 59.0°F
2017-10-17 12:51 56 34 - 43 Variable 7 - 30.33 30.33 10 CLR None
2017-10-17 11:51 52 33 - 48 Variable 3 - 30.35 30.35 10 CLR None
2017-10-17 10:51 48 33 46 56 Variable 5 - 30.36 30.36 10 CLR None
2017-10-17 09:51 47 33 44 58 Variable 6 - 30.37 30.37 10 CLR None
2017-10-17 08:51 43 33 41 67 290° 3 - 30.37 30.37 10 CLR None
2017-10-17 07:51 40 32 37 73 290° 5 - 30.34 30.35 10 CLR 6-hr Min Temp (8am): 37.9°F
6-hr Max Temp (8am): 43.0°F
2017-10-17 06:51 39 31 36 72 310° 5 - 30.33 30.34 10 CLR None
2017-10-17 05:51 40 31 37 69 290° 5 - 30.32 30.32 10 CLR None
2017-10-17 04:51 40 31 36 69 290° 6 - 30.29 30.30 10 CLR None
2017-10-17 03:51 40 31 37 69 300° 5 - 30.27 30.27 10 CLR None
2017-10-17 02:51 40 31 38 69 320° 3 - 30.27 30.27 10 CLR None
2017-10-17 01:51 41 31 - 67 - Calm - 30.27 30.27 10 CLR 6-hr Min Temp (2am): 39.9°F
6-hr Max Temp (2am): 48.9°F
2017-10-17 00:51 43 31 40 62 320° 5 - 30.26 30.27 10 CLR 24-hr Min Temp (1am): 43.0°F
24-hr Max Temp (1am): 66.0°F
2017-10-16 23:51 43 32 37 64 350° 10 - 30.26 30.26 10 CLR None
2017-10-16 22:51 47 33 42 58 340° 12 - 30.25 30.25 10 CLR None
2017-10-16 21:51 48 34 44 58 360° 9 - 30.22 30.23 10 CLR None
2017-10-16 20:51 49 35 45 58 360° 9 - 30.19 30.19 10 CLR None
2017-10-16 19:51 48 34 46 58 10° 5 - 30.16 30.16 10 CLR 6-hr Min Temp (8pm): 48.0°F
6-hr Max Temp (8pm): 59.0°F
2017-10-16 18:51 50 34 49 53 350° 3 - 30.14 30.14 10 CLR None
2017-10-16 17:51 55 33 - 43 350° 12 - 30.12 30.12 10 CLR None
2017-10-16 16:51 57 34 - 41 350° 15 24 30.10 30.10 10 FEW050 None
2017-10-16 15:51 58 37 - 45 320° 13 - 30.09 30.09 10 CLR None
2017-10-16 14:51 56 38 - 50 350° 17 22 30.08 30.08 10 CLR None

Support USWX by starting your Amazon purchase here.